|
公曆農曆對照

機場天氣預報 (TAF)

機場天氣預報 (TAF) 載述關於某個機場在預測期內預料會出現的氣象要素。

香港天文台在 19 年 03 月 25 日 19 時 00 分最新發出的香港國際機場天氣預報

TAF VHHH 251100Z 2512/2618 VRB05KT 7000 FEW020 TX24/2606Z TN19/2522Z TEMPO 2514/2521 03010KT TEMPO 2521/2524 4000 BR TEMPO 2602/2608 30010KT BECMG 2608/2610 10010KT=

(下次更新時間:19年03月26日01時00分)

機場天氣預報電碼經解碼後:-

香港天文台發出 2019 年 03 月 25 日 12 協調世界時 至 2019 年 03 月 26 日 18 協調世界時 的機場天氣預報:
 

時間(協調世界時) 能見度 天氣狀況 雲層 雲層高度
2019 年 03 月 25 日 12 時 至 2019 年 03 月 26 日 08 時 5 海里/小時 (風向不定) 7 公里 無重要天氣狀況
1-2
2000 呎
2019 年 03 月 25 日 14 時 至 21 時 期間間中 東北偏北風 (030 o) 10 海里/小時 7 公里 無重要天氣狀況
1-2
2000 呎
2019 年 03 月 25 日 21 時 至 24 時 期間間中 5 海里/小時 (風向不定) 4000 米 薄霧
1-2
2000 呎
2019 年 03 月 26 日 02 時 至 08 時 期間間中 西北偏西風 (300 o) 10 海里/小時 7 公里 無重要天氣狀況
1-2
2000 呎
2019 年 03 月 26 日 08 時 至 10 時 期間逐漸轉變為 東風 (100 o) 10 海里/小時 7 公里 無重要天氣狀況
1-2
2000 呎

時間(協調世界時) 氣溫
2019 年 03 月 26 日 06 時
最高24 oC
2019 年 03 月 25 日 22 時
最低19 oC

份: 雲層是以估計天空被雲遮蔽之總面積來評定。把天空分為八份,1 份即是八份之一的天空被雲遮蔽,2 份即是八份之二的天空被雲遮蔽,如此類推。
  0 份 = 天朗氣清,1-2 份 = 稀薄雲層,3-4 份 = 零散雲層,5-7 份 = 疏鬆雲層,8 份 = 天色陰暗。
若想進一步瞭解機場天氣預報(TAF)的編碼,請參看剖析TAF電碼的意義
若想進一步瞭解雲,請參看香港常見的雲
 
香港國際機場航空天氣報告資料 本港地區航空天氣預報
 
版權及聲明